createdAt,value
2019-06-10T00:00:13.798Z,8.37
2019-06-10T00:02:38.119Z,8.33
2019-06-10T00:05:07.837Z,7.97
2019-06-10T00:07:37.320Z,8.20
2019-06-10T00:10:10.648Z,8.00
2019-06-10T00:12:41.841Z,8.83
2019-06-10T00:15:11.331Z,8.73
2019-06-10T00:17:53.210Z,8.40
2019-06-10T00:20:12.590Z,8.40
2019-06-10T00:22:42.004Z,8.43
2019-06-10T00:25:12.005Z,7.97
2019-06-10T00:27:42.186Z,8.20
2019-06-10T00:30:12.384Z,8.43
2019-06-10T00:32:42.155Z,8.63
2019-06-10T00:35:12.444Z,8.50
2019-06-10T00:37:42.737Z,8.53
2019-06-10T00:40:14.038Z,8.67
2019-06-10T00:42:43.346Z,8.53
2019-06-10T00:45:17.763Z,9.43
2019-06-10T00:47:43.990Z,8.93
2019-06-10T00:50:14.773Z,9.63
2019-06-10T00:52:45.388Z,9.10
2019-06-10T00:55:15.297Z,9.13
2019-06-10T00:57:44.778Z,8.97
2019-06-10T01:00:24.924Z,8.70
2019-06-10T01:02:45.715Z,9.33
2019-06-10T01:05:15.435Z,9.20
2019-06-10T01:07:45.279Z,9.30
2019-06-10T01:10:15.374Z,9.70
2019-06-10T01:12:45.863Z,9.40
2019-06-10T01:15:15.625Z,9.47
2019-06-10T01:17:45.505Z,9.63
2019-06-10T01:20:16.118Z,9.83
2019-06-10T01:22:45.649Z,10.10
2019-06-10T01:25:15.136Z,9.80
2019-06-10T01:27:45.070Z,9.90
2019-06-10T01:30:20.553Z,10.20
2019-06-10T01:32:45.996Z,9.53
2019-06-10T01:35:15.878Z,8.63
2019-06-10T01:37:46.514Z,9.50
2019-06-10T01:40:17.687Z,9.27
2019-06-10T01:42:47.223Z,9.07
2019-06-10T01:45:17.318Z,9.27
2019-06-10T01:47:47.201Z,9.53
2019-06-10T01:50:17.675Z,8.93
2019-06-10T01:52:48.580Z,9.30
2019-06-10T01:55:18.286Z,9.10
2019-06-10T01:57:47.728Z,9.53
2019-06-10T02:00:23.327Z,9.63
2019-06-10T02:02:52.348Z,8.93
2019-06-10T02:05:22.863Z,9.47
2019-06-10T02:07:52.636Z,9.40
2019-06-10T02:10:23.057Z,9.33
2019-06-10T02:12:53.428Z,9.57
2019-06-10T02:15:22.977Z,9.17
2019-06-10T02:17:52.357Z,9.33
2019-06-10T02:20:23.885Z,9.43
2019-06-10T02:22:52.925Z,9.47
2019-06-10T02:25:25.685Z,9.83
2019-06-10T02:27:55.142Z,8.83
2019-06-10T02:30:40.078Z,8.97
2019-06-10T02:32:55.912Z,9.13
2019-06-10T02:35:38.094Z,8.73
2019-06-10T02:37:56.958Z,8.97
2019-06-10T02:40:32.164Z,9.10
2019-06-10T02:42:59.004Z,10.17
2019-06-10T02:45:33.697Z,9.83
2019-06-10T02:48:03.891Z,9.30
2019-06-10T02:51:06.803Z,8.77
2019-06-10T02:53:37.897Z,8.60
2019-06-10T02:56:08.468Z,9.63
2019-06-10T02:58:40.160Z,10.00
2019-06-10T03:01:10.283Z,9.07
2019-06-10T03:03:48.150Z,9.77
2019-06-10T03:06:14.464Z,9.53
2019-06-10T03:08:43.712Z,9.27
2019-06-10T03:11:14.262Z,9.23
2019-06-10T03:13:44.270Z,9.03
2019-06-10T03:16:25.805Z,10.07
2019-06-10T03:18:55.369Z,9.27
2019-06-10T03:21:25.993Z,9.73
2019-06-10T03:23:55.489Z,9.07
2019-06-10T03:26:25.674Z,9.47
2019-06-10T03:28:55.872Z,9.63
2019-06-10T03:31:33.942Z,10.83
2019-06-10T03:33:56.970Z,10.33
2019-06-10T03:36:27.309Z,10.10
2019-06-10T03:38:56.995Z,11.60
2019-06-10T03:41:27.971Z,10.43
2019-06-10T03:43:57.510Z,10.03
2019-06-10T03:46:28.369Z,9.63
2019-06-10T03:48:58.316Z,9.20
2019-06-10T03:51:28.629Z,9.93
2019-06-10T03:53:58.301Z,9.93
2019-06-10T03:56:28.213Z,9.93
2019-06-10T03:58:57.704Z,10.27
2019-06-10T04:01:29.788Z,10.07
2019-06-10T04:03:58.309Z,10.17
2019-06-10T04:06:29.367Z,9.57
2019-06-10T04:08:58.952Z,10.07
2019-06-10T04:11:31.515Z,10.87
2019-06-10T04:14:02.376Z,10.43
2019-06-10T04:16:34.097Z,10.83
2019-06-10T04:19:03.833Z,10.10
2019-06-10T04:21:33.408Z,11.13
2019-06-10T04:24:03.138Z,9.90
2019-06-10T04:26:32.906Z,10.13
2019-06-10T04:29:02.657Z,10.43
2019-06-10T04:31:33.045Z,12.37
2019-06-10T04:34:03.326Z,12.93
2019-06-10T04:36:33.481Z,11.10
2019-06-10T04:39:03.362Z,14.67
2019-06-10T04:41:33.067Z,10.87
2019-06-10T04:44:02.859Z,12.73
2019-06-10T04:46:32.652Z,13.60
2019-06-10T04:49:02.794Z,15.80
2019-06-10T04:51:33.063Z,14.33
2019-06-10T04:54:03.164Z,18.77
2019-06-10T04:56:33.506Z,17.93
2019-06-10T04:59:03.310Z,17.23
2019-06-10T05:01:33.654Z,16.67
2019-06-10T05:04:03.375Z,17.67
2019-06-10T05:06:33.030Z,13.87
2019-06-10T05:09:04.242Z,11.87
2019-06-10T05:11:34.165Z,12.13
2019-06-10T05:14:03.691Z,12.17
2019-06-10T05:16:35.842Z,11.30
2019-06-10T05:19:04.666Z,13.00
2019-06-10T05:21:34.223Z,11.53
2019-06-10T05:24:04.269Z,10.87
2019-06-10T05:26:34.021Z,11.37
2019-06-10T05:29:03.435Z,12.20
2019-06-10T05:31:35.021Z,12.30
2019-06-10T05:34:04.445Z,12.03
2019-06-10T05:36:34.635Z,14.60
2019-06-10T05:39:05.804Z,17.67
2019-06-10T05:41:35.339Z,13.13
2019-06-10T05:44:05.210Z,11.83
2019-06-10T05:46:35.081Z,11.77
2019-06-10T05:49:04.606Z,14.67
2019-06-10T05:51:35.365Z,13.23
2019-06-10T05:54:05.081Z,13.03
2019-06-10T05:56:35.698Z,12.43
2019-06-10T05:59:05.247Z,12.30
2019-06-10T06:01:38.029Z,13.03
2019-06-10T06:04:08.654Z,12.70
2019-06-10T06:06:41.497Z,16.07
2019-06-10T06:09:09.565Z,17.67
2019-06-10T06:11:39.837Z,11.83
2019-06-10T06:14:09.318Z,11.77
2019-06-10T06:16:38.716Z,11.60
2019-06-10T06:19:08.112Z,11.40
2019-06-10T06:21:42.724Z,10.27
2019-06-10T06:24:08.785Z,10.73
2019-06-10T06:26:39.694Z,10.20
2019-06-10T06:29:09.299Z,9.90
2019-06-10T06:31:39.400Z,12.63
2019-06-10T06:34:09.133Z,11.87
2019-06-10T06:36:38.569Z,9.63
2019-06-10T06:39:09.010Z,9.63
2019-06-10T06:41:39.090Z,9.13
2019-06-10T06:44:08.810Z,9.47
2019-06-10T06:46:39.696Z,9.60
2019-06-10T06:49:09.218Z,9.27
2019-06-10T06:51:51.734Z,8.87
2019-06-10T06:54:12.536Z,9.13
2019-06-10T06:56:43.793Z,8.93
2019-06-10T06:59:13.430Z,9.03
2019-06-10T07:01:44.180Z,8.70
2019-06-10T07:04:14.114Z,9.13
2019-06-10T07:06:46.034Z,8.73
2019-06-10T07:09:16.532Z,8.77
2019-06-10T07:11:46.873Z,9.30
2019-06-10T07:14:18.177Z,9.53
2019-06-10T07:16:47.655Z,9.17
2019-06-10T07:19:17.126Z,8.97
2019-06-10T07:22:05.295Z,9.97
2019-06-10T07:24:18.405Z,9.70
2019-06-10T07:26:52.191Z,9.73
2019-06-10T07:29:19.258Z,9.57
2019-06-10T07:31:50.341Z,10.50
2019-06-10T07:34:22.120Z,9.70
2019-06-10T07:36:52.159Z,10.33
2019-06-10T07:39:22.827Z,10.30
2019-06-10T07:41:53.021Z,9.80
2019-06-10T07:44:22.768Z,9.00
2019-06-10T07:46:53.206Z,9.70
2019-06-10T07:49:23.822Z,9.33
2019-06-10T07:51:54.085Z,9.17
2019-06-10T07:54:23.620Z,8.70
2019-06-10T07:56:53.934Z,8.47
2019-06-10T07:59:23.956Z,8.90
2019-06-10T08:01:55.231Z,8.37
2019-06-10T08:04:24.771Z,8.63
2019-06-10T08:06:54.234Z,9.40
2019-06-10T08:09:23.731Z,8.23
2019-06-10T08:11:53.385Z,8.63
2019-06-10T08:14:22.847Z,9.27
2019-06-10T08:16:53.288Z,8.83
2019-06-10T08:19:34.404Z,8.73
2019-06-10T08:21:54.743Z,9.10
2019-06-10T08:24:24.930Z,9.80
2019-06-10T08:26:54.445Z,8.80
2019-06-10T08:29:24.149Z,8.50
2019-06-10T08:31:53.657Z,9.20
2019-06-10T08:34:23.265Z,10.00
2019-06-10T08:36:54.329Z,8.45
2019-06-10T08:39:23.775Z,7.85
2019-06-10T08:41:53.241Z,8.43
2019-06-10T08:44:22.999Z,8.55
2019-06-10T08:46:53.016Z,9.65
2019-06-10T08:49:23.846Z,10.15
2019-06-10T08:51:54.105Z,9.98
2019-06-10T08:54:23.694Z,10.98
2019-06-10T08:56:54.132Z,10.03
2019-06-10T08:59:24.224Z,10.82
2019-06-10T09:01:56.676Z,9.50
2019-06-10T09:04:29.240Z,9.68
2019-06-10T09:06:57.015Z,8.80
2019-06-10T09:09:27.194Z,9.65
2019-06-10T09:11:56.614Z,10.60
2019-06-10T09:14:26.054Z,9.70
2019-06-10T09:16:55.543Z,7.90
2019-06-10T09:19:25.422Z,8.20
2019-06-10T09:21:56.418Z,8.70
2019-06-10T09:24:26.497Z,9.43
2019-06-10T09:26:55.969Z,8.63
2019-06-10T09:29:25.701Z,8.65
2019-06-10T09:31:55.932Z,7.28
2019-06-10T09:34:25.567Z,8.60
2019-06-10T09:36:56.833Z,8.15
2019-06-10T09:39:26.676Z,7.15
2019-06-10T09:42:01.520Z,7.87
2019-06-10T09:44:27.253Z,6.97
2019-06-10T09:47:00.274Z,6.33
2019-06-10T09:49:29.284Z,7.17
2019-06-10T09:51:58.680Z,8.25
2019-06-10T09:54:28.216Z,7.05
2019-06-10T09:56:57.725Z,7.47
2019-06-10T09:59:27.133Z,6.75
2019-06-10T10:02:00.072Z,6.10
2019-06-10T10:04:28.446Z,5.85
2019-06-10T10:06:58.369Z,6.00
2019-06-10T10:09:27.779Z,6.95
2019-06-10T10:11:57.241Z,6.40
2019-06-10T10:14:26.663Z,6.60
2019-06-10T10:17:00.105Z,5.90
2019-06-10T10:19:28.926Z,6.58
2019-06-10T10:21:58.769Z,6.30
2019-06-10T10:24:28.238Z,6.03
2019-06-10T10:27:01.705Z,6.03
2019-06-10T10:29:28.801Z,7.20
2019-06-10T10:31:58.247Z,6.47
2019-06-10T10:34:28.050Z,6.25
2019-06-10T10:36:57.525Z,6.33
2019-06-10T10:39:27.383Z,6.28
2019-06-10T10:41:57.375Z,6.95
2019-06-10T10:44:26.998Z,7.10
2019-06-10T10:46:56.456Z,6.25
2019-06-10T10:49:25.934Z,6.53
2019-06-10T10:51:55.428Z,7.62
2019-06-10T10:54:32.953Z,8.28
2019-06-10T10:56:59.042Z,7.58
2019-06-10T10:59:27.865Z,6.10
2019-06-10T11:01:57.320Z,5.72
2019-06-10T11:04:26.749Z,5.65
2019-06-10T11:06:58.969Z,5.75
2019-06-10T11:09:28.958Z,6.45
2019-06-10T11:12:02.897Z,7.30
2019-06-10T11:14:33.511Z,6.37
2019-06-10T11:17:03.310Z,5.97
2019-06-10T11:19:33.067Z,6.67
2019-06-10T11:22:03.350Z,6.70
2019-06-10T11:24:40.602Z,5.95
2019-06-10T11:27:03.976Z,6.65
2019-06-10T11:29:53.642Z,6.20
2019-06-10T11:32:23.539Z,6.50
2019-06-10T11:34:56.740Z,6.70
2019-06-10T11:37:24.402Z,6.72
2019-06-10T11:39:54.949Z,7.40
2019-06-10T11:42:24.549Z,6.10
2019-06-10T11:44:57.347Z,6.95
2019-06-10T11:47:25.393Z,5.87
2019-06-10T11:49:55.415Z,6.28
2019-06-10T11:52:26.343Z,5.85
2019-06-10T11:55:08.865Z,6.33
2019-06-10T11:57:26.960Z,7.45
2019-06-10T11:59:57.772Z,6.47
2019-06-10T12:02:27.946Z,6.35
2019-06-10T12:04:59.331Z,6.20
2019-06-10T12:07:28.966Z,6.80
2019-06-10T12:10:00.833Z,5.90
2019-06-10T12:12:33.478Z,6.90
2019-06-10T12:15:01.464Z,6.50
2019-06-10T12:17:42.936Z,8.25
2019-06-10T12:20:03.348Z,7.62
2019-06-10T12:22:33.147Z,6.78
2019-06-10T12:25:27.223Z,6.22
2019-06-10T12:27:34.342Z,7.70
2019-06-10T12:30:05.146Z,6.00
2019-06-10T12:32:34.754Z,7.15
2019-06-10T12:35:05.454Z,6.28
2019-06-10T12:37:35.252Z,6.33
2019-06-10T12:40:05.982Z,6.58
2019-06-10T12:42:35.611Z,6.10
2019-06-10T12:45:08.637Z,7.00
2019-06-10T12:47:38.282Z,6.33
2019-06-10T12:50:09.110Z,8.40
2019-06-10T12:52:38.558Z,6.08
2019-06-10T12:55:08.949Z,6.55
2019-06-10T12:57:38.634Z,6.30
2019-06-10T13:00:19.385Z,6.72
2019-06-10T13:02:42.595Z,7.20
2019-06-10T13:05:12.229Z,9.35
2019-06-10T13:07:43.505Z,9.70
2019-06-10T13:10:13.618Z,14.63
2019-06-10T13:12:43.093Z,27.40
2019-06-10T13:15:12.645Z,13.10
2019-06-10T13:17:43.996Z,22.85
2019-06-10T13:20:13.690Z,24.23
2019-06-10T13:22:43.846Z,19.48
2019-06-10T13:25:13.529Z,20.85
2019-06-10T13:27:42.987Z,19.20
2019-06-10T13:30:12.656Z,18.52
2019-06-10T13:32:43.474Z,17.50
2019-06-10T13:35:13.117Z,18.12
2019-06-10T13:37:42.969Z,17.35
2019-06-10T13:40:13.091Z,16.40
2019-06-10T13:42:42.657Z,16.65
2019-06-10T13:45:13.058Z,16.37
2019-06-10T13:47:43.079Z,16.75
2019-06-10T13:50:15.246Z,16.75
2019-06-10T13:52:45.406Z,16.25
2019-06-10T13:55:16.264Z,14.95
2019-06-10T13:57:45.741Z,14.87
2019-06-10T14:00:16.151Z,15.72
2019-06-10T14:02:45.638Z,14.98
2019-06-10T14:05:18.238Z,10.38
2019-06-10T14:07:46.491Z,9.38
2019-06-10T14:10:19.173Z,9.88
2019-06-10T14:12:49.586Z,12.00
2019-06-10T14:15:22.366Z,11.95
2019-06-10T14:17:52.734Z,10.30
2019-06-10T14:20:23.037Z,9.03
2019-06-10T14:22:53.033Z,10.43
2019-06-10T14:25:23.252Z,9.37
2019-06-10T14:27:53.311Z,10.43
2019-06-10T14:30:23.161Z,10.15
2019-06-10T14:32:53.249Z,11.22
2019-06-10T14:35:26.686Z,9.85
2019-06-10T14:37:55.001Z,8.75
2019-06-10T14:40:25.175Z,8.45
2019-06-10T14:42:55.485Z,9.68
2019-06-10T14:45:25.785Z,9.68
2019-06-10T14:47:58.625Z,8.38
2019-06-10T14:50:27.220Z,8.93
2019-06-10T14:52:56.953Z,9.05
2019-06-10T14:55:26.830Z,9.43
2019-06-10T14:57:56.718Z,9.50
2019-06-10T15:00:26.461Z,9.45
2019-06-10T15:02:55.969Z,10.03
2019-06-10T15:05:25.555Z,9.30
2019-06-10T15:07:55.067Z,10.50
2019-06-10T15:10:24.907Z,9.60
2019-06-10T15:12:54.794Z,9.85
2019-06-10T15:15:25.085Z,10.00
2019-06-10T15:17:55.309Z,10.40
2019-06-10T15:20:24.791Z,9.13
2019-06-10T15:22:54.271Z,9.83
2019-06-10T15:25:27.970Z,10.60
2019-06-10T15:27:54.957Z,10.50
2019-06-10T15:30:31.205Z,10.65
2019-06-10T15:32:59.136Z,10.65
2019-06-10T15:35:28.720Z,9.63
2019-06-10T15:38:03.951Z,11.33
2019-06-10T15:40:32.555Z,11.57
2019-06-10T15:43:05.577Z,10.57
2019-06-10T15:45:33.553Z,7.95
2019-06-10T15:48:03.073Z,11.38
2019-06-10T15:50:32.790Z,10.75
2019-06-10T15:53:03.187Z,8.53
2019-06-10T15:56:04.968Z,8.90
2019-06-10T15:58:04.593Z,9.10
2019-06-10T16:00:34.271Z,11.18
2019-06-10T16:03:03.762Z,10.80
2019-06-10T16:05:33.241Z,9.78
2019-06-10T16:08:03.248Z,12.25
2019-06-10T16:10:32.906Z,11.95
2019-06-10T16:13:03.392Z,8.30
2019-06-10T16:15:33.220Z,8.80
2019-06-10T16:18:03.012Z,9.90
2019-06-10T16:20:32.885Z,9.58
2019-06-10T16:23:03.030Z,11.78
2019-06-10T16:25:32.574Z,8.28
2019-06-10T16:28:02.748Z,8.68
2019-06-10T16:30:32.666Z,8.03
2019-06-10T16:33:02.885Z,7.12
2019-06-10T16:35:32.401Z,7.20
2019-06-10T16:38:01.920Z,7.42
2019-06-10T16:40:32.495Z,7.55
2019-06-10T16:43:02.402Z,8.63
2019-06-10T16:45:33.999Z,8.25
2019-06-10T16:48:03.622Z,8.75
2019-06-10T16:50:34.088Z,9.05
2019-06-10T16:53:04.067Z,12.80
2019-06-10T16:55:33.614Z,10.72
2019-06-10T16:58:03.096Z,12.20
2019-06-10T17:00:34.901Z,11.12
2019-06-10T17:03:04.165Z,13.08
2019-06-10T17:05:33.909Z,9.50
2019-06-10T17:08:03.401Z,11.88
2019-06-10T17:10:34.413Z,9.25
2019-06-10T17:13:06.140Z,13.25
2019-06-10T17:15:35.658Z,10.40
2019-06-10T17:18:05.582Z,11.53
2019-06-10T17:20:35.098Z,10.90
2019-06-10T17:23:24.624Z,12.53
2019-06-10T17:25:54.550Z,11.67
2019-06-10T17:28:28.436Z,13.95
2019-06-10T17:30:57.951Z,8.68
2019-06-10T17:33:29.786Z,11.97
2019-06-10T17:35:58.969Z,12.67
2019-06-10T17:38:29.025Z,13.53
2019-06-10T17:40:58.936Z,19.52
2019-06-10T17:43:29.338Z,21.43
2019-06-10T17:45:58.828Z,14.40
2019-06-10T17:48:29.233Z,19.73
2019-06-10T17:50:58.926Z,19.97
2019-06-10T17:53:28.473Z,24.83
2019-06-10T17:55:58.062Z,24.77
2019-06-10T17:58:39.348Z,21.93
2019-06-10T18:00:58.710Z,20.23
2019-06-10T18:03:29.319Z,23.73
2019-06-10T18:05:59.114Z,23.60
2019-06-10T18:08:29.600Z,24.03
2019-06-10T18:10:59.250Z,30.47
2019-06-10T18:13:30.075Z,29.93
2019-06-10T18:15:59.610Z,27.33
2019-06-10T18:18:30.482Z,28.33
2019-06-10T18:21:03.163Z,20.83
2019-06-10T18:23:32.928Z,25.90
2019-06-10T18:26:03.203Z,25.03
2019-06-10T18:28:45.536Z,30.10
2019-06-10T18:31:04.571Z,26.20
2019-06-10T18:33:36.360Z,27.23
2019-06-10T18:36:05.597Z,27.80
2019-06-10T18:38:36.938Z,29.70
2019-06-10T18:41:06.401Z,26.57
2019-06-10T18:43:36.914Z,34.17
2019-06-10T18:46:06.823Z,36.17
2019-06-10T18:48:38.090Z,29.17
2019-06-10T18:51:08.065Z,28.17
2019-06-10T18:53:37.569Z,28.67
2019-06-10T18:56:07.083Z,27.47
2019-06-10T18:58:37.834Z,38.07
2019-06-10T19:01:08.296Z,40.00
2019-06-10T19:03:38.296Z,46.70
2019-06-10T19:06:09.682Z,41.00
2019-06-10T19:08:40.748Z,45.43
2019-06-10T19:11:10.746Z,45.57
2019-06-10T19:13:42.791Z,41.03
2019-06-10T19:16:13.027Z,45.50
2019-06-10T19:18:43.351Z,44.03
2019-06-10T19:21:13.364Z,39.40
2019-06-10T19:23:43.945Z,38.47
2019-06-10T19:26:13.764Z,38.93
2019-06-10T19:28:45.069Z,38.70
2019-06-10T19:31:14.926Z,38.37
2019-06-10T19:33:45.312Z,34.47
2019-06-10T19:36:15.138Z,39.03
2019-06-10T19:38:44.639Z,34.70
2019-06-10T19:41:14.182Z,36.00
2019-06-10T19:43:45.487Z,37.27
2019-06-10T19:46:15.273Z,35.60
2019-06-10T19:48:57.386Z,33.73
2019-06-10T19:51:15.924Z,35.87
2019-06-10T19:53:45.441Z,34.90
2019-06-10T19:56:14.856Z,33.80
2019-06-10T19:58:46.361Z,36.63
2019-06-10T20:01:15.425Z,36.33
2019-06-10T20:03:47.001Z,33.33
2019-06-10T20:06:16.344Z,35.20
2019-06-10T20:08:46.206Z,36.33
2019-06-10T20:11:16.224Z,36.77
2019-06-10T20:13:46.852Z,33.13
2019-06-10T20:16:16.378Z,35.33
2019-06-10T20:18:48.186Z,34.80
2019-06-10T20:21:17.257Z,34.17
2019-06-10T20:23:47.875Z,33.07
2019-06-10T20:26:17.826Z,34.63
2019-06-10T20:28:52.213Z,34.20
2019-06-10T20:31:18.606Z,32.80
2019-06-10T20:33:48.054Z,33.17
2019-06-10T20:36:22.441Z,32.37
2019-06-10T20:38:48.980Z,33.67
2019-06-10T20:41:19.798Z,31.60
2019-06-10T20:43:49.591Z,32.40
2019-06-10T20:46:23.328Z,32.37
2019-06-10T20:48:54.441Z,30.20
2019-06-10T20:51:26.874Z,29.43
2019-06-10T20:53:54.501Z,28.50
2019-06-10T20:56:23.976Z,28.20
2019-06-10T20:58:53.377Z,30.87
2019-06-10T21:01:25.369Z,27.17
2019-06-10T21:03:54.533Z,27.97
2019-06-10T21:06:25.561Z,24.37
2019-06-10T21:08:56.054Z,21.47
2019-06-10T21:11:25.548Z,20.60
2019-06-10T21:13:55.774Z,21.97
2019-06-10T21:16:25.578Z,21.27
2019-06-10T21:18:55.655Z,21.30
2019-06-10T21:21:25.688Z,21.07
2019-06-10T21:23:55.469Z,20.73
2019-06-10T21:26:25.037Z,18.57
2019-06-10T21:28:55.278Z,19.30
2019-06-10T21:31:24.880Z,18.47
2019-06-10T21:33:55.927Z,17.60
2019-06-10T21:36:25.579Z,17.30
2019-06-10T21:38:55.858Z,19.20
2019-06-10T21:41:25.565Z,18.10
2019-06-10T21:43:59.096Z,17.43
2019-06-10T21:46:26.878Z,17.20
2019-06-10T21:48:56.398Z,18.17
2019-06-10T21:51:25.873Z,17.17
2019-06-10T21:53:55.441Z,16.23
2019-06-10T21:56:25.314Z,17.77
2019-06-10T21:58:55.763Z,17.67
2019-06-10T22:01:25.337Z,17.40
2019-06-10T22:04:00.701Z,17.20
2019-06-10T22:06:27.018Z,15.50
2019-06-10T22:08:56.762Z,15.87
2019-06-10T22:11:27.479Z,15.43
2019-06-10T22:13:56.857Z,16.27
2019-06-10T22:16:26.288Z,15.97
2019-06-10T22:18:55.656Z,14.63
2019-06-10T22:21:25.485Z,15.43
2019-06-10T22:23:56.730Z,15.30
2019-06-10T22:26:26.286Z,16.33
2019-06-10T22:28:57.531Z,16.53
2019-06-10T22:31:27.273Z,15.47
2019-06-10T22:33:57.660Z,15.03
2019-06-10T22:36:27.253Z,15.17
2019-06-10T22:38:59.102Z,15.73
2019-06-10T22:41:28.423Z,15.83
2019-06-10T22:43:57.908Z,16.17
2019-06-10T22:46:27.285Z,15.83
2019-06-10T22:48:57.581Z,15.27
2019-06-10T22:51:26.984Z,15.27
2019-06-10T22:53:58.557Z,15.20
2019-06-10T22:56:28.210Z,15.27
2019-06-10T22:58:57.613Z,15.17
2019-06-10T23:01:34.223Z,14.47
2019-06-10T23:03:58.321Z,14.53
2019-06-10T23:06:27.757Z,14.13
2019-06-10T23:08:58.122Z,14.10
2019-06-10T23:11:28.569Z,14.70
2019-06-10T23:13:59.320Z,13.43
2019-06-10T23:16:29.060Z,14.50
2019-06-10T23:18:59.895Z,14.43
2019-06-10T23:21:31.609Z,13.90
2019-06-10T23:24:03.160Z,14.90
2019-06-10T23:26:33.156Z,13.87
2019-06-10T23:29:03.427Z,14.93
2019-06-10T23:31:48.361Z,13.90
2019-06-10T23:34:04.122Z,13.80
2019-06-10T23:36:33.896Z,13.20
2019-06-10T23:39:04.187Z,13.70
2019-06-10T23:41:33.724Z,13.13
2019-06-10T23:44:04.370Z,14.23
2019-06-10T23:46:33.961Z,12.77
2019-06-10T23:49:04.637Z,13.97
2019-06-10T23:51:34.592Z,14.13
2019-06-10T23:54:06.222Z,13.37
2019-06-10T23:56:35.950Z,13.77
2019-06-10T23:59:05.421Z,15.07
